This is the latest recevied weather packets stored in our database for station/object K0QED. If no packets are shown the sender has not sent any weather packets the latest 10 day(s).
| Time | Temp. | Humidity | Pressure | Rain* | Wind** | Luminosity | Snow |
|---|---|---|---|---|---|---|---|
| 1788308038 | 23.33° C | 42% | 1024.1 hPa | 0 mm | - | 30 W/m² | - |
| 1788307739 | 24.44° C | 38% | 1024.2 hPa | 0 mm | - | 29 W/m² | - |
| 1788307434 | 25° C | 38% | 1024.4 hPa | 0 mm | - | 42 W/m² | - |
| 1788307129 | 25° C | 39% | 1024.1 hPa | 0 mm | - | 151 W/m² | - |
| 1788306829 | 24.44° C | 37% | 1024.4 hPa | 0 mm | - | 67 W/m² | - |
| 1788306524 | 23.89° C | 40% | 1024 hPa | 0 mm | - | 173 W/m² | - |
| 1788306221 | 24.44° C | 38% | 1024.2 hPa | 0 mm | - | 68 W/m² | - |
| 1788305913 | 25° C | 37% | 1024.4 hPa | 0 mm | - | 89 W/m² | - |
| 1788305609 | 25° C | 38% | 1023.9 hPa | 0 mm | - | 228 W/m² | - |
| 1788305305 | 25° C | 36% | 1024.2 hPa | 0 mm | - | 235 W/m² | - |
| 1788304999 | 25.56° C | 34% | 1024 hPa | 0 mm | - | 111 W/m² | - |
| 1788304695 | 25.56° C | 32% | 1024.1 hPa | 0 mm | - | 265 W/m² | - |
| 1788304391 | 25.56° C | 32% | 1024.4 hPa | 0 mm | - | 243 W/m² | - |
| 1788304088 | 26.11° C | 33% | 1024.6 hPa | 0 mm | - | 255 W/m² | - |
| 1788303786 | 26.67° C | 31% | 1024.2 hPa | 0 mm | - | 294 W/m² | - |
| 1788303483 | 26.67° C | 31% | 1024.4 hPa | 0 mm | - | 294 W/m² | - |
| 1788303182 | 26.67° C | 31% | 1024.6 hPa | 0 mm | - | 330 W/m² | - |
| 1788302877 | 26.11° C | 33% | 1024.5 hPa | 0 mm | - | 353 W/m² | - |
| 1788302574 | 25.56° C | 33% | 1024.7 hPa | 0 mm | - | 384 W/m² | - |
| 1788302269 | 26.11° C | 33% | 1024.5 hPa | 0 mm | - | 203 W/m² | - |
| 1788301964 | 25.56° C | 33% | 1024.6 hPa | 0 mm | - | 456 W/m² | - |
| 1788301660 | 24.44° C | 35% | 1024.9 hPa | 0 mm | - | 188 W/m² | - |
| 1788301356 | 24.44° C | 35% | 1024.9 hPa | 0 mm | - | 89 W/m² | - |
| 1788301052 | 24.44° C | 36% | 1024.6 hPa | 0 mm | - | 92 W/m² | - |
| 1788300748 | 24.44° C | 35% | 1024.7 hPa | 0 mm | - | 107 W/m² | - |
* Rain latest hour (hover to see other rain measurements)
** Current wind speed in m/s (hover to see current wind gust speed)